createdAt,value
2022-08-22T00:00:59.185Z,100070.03
2022-08-22T00:02:42.866Z,100051.72
2022-08-22T00:03:12.015Z,100053.67
2022-08-22T00:03:45.959Z,100076.33
2022-08-22T00:06:23.816Z,100076.33
2022-08-22T00:09:16.940Z,100071.05
2022-08-22T00:11:52.163Z,100077.08
2022-08-22T00:14:32.464Z,100073.36
2022-08-22T00:17:06.238Z,100070.72
2022-08-22T00:19:41.604Z,100069.70
2022-08-22T00:22:17.913Z,100074.93
2022-08-22T00:24:53.215Z,100074.00
2022-08-22T00:27:26.720Z,100076.55
2022-08-22T00:30:05.342Z,100077.33
2022-08-22T00:32:42.823Z,100081.50
2022-08-22T00:35:21.562Z,100080.52
2022-08-22T00:38:02.127Z,100078.63
2022-08-22T00:40:44.835Z,100082.92
2022-08-22T00:43:48.357Z,100084.55
2022-08-22T00:46:32.246Z,100079.17
2022-08-22T00:49:17.179Z,100079.11
2022-08-22T00:52:13.340Z,100088.66
2022-08-22T00:54:58.337Z,100080.73
2022-08-22T00:57:51.219Z,100083.28
2022-08-22T01:00:22.751Z,100080.58
2022-08-22T01:03:21.195Z,100077.84
2022-08-22T01:06:06.669Z,100084.94
2022-08-22T01:08:53.723Z,100086.64
2022-08-22T01:11:42.492Z,100085.77
2022-08-22T01:14:35.068Z,100079.70
2022-08-22T01:17:44.692Z,100078.18
2022-08-22T01:20:48.294Z,100078.33
2022-08-22T01:23:53.363Z,100089.05
2022-08-22T01:27:01.916Z,100084.78
2022-08-22T01:30:01.428Z,100088.36
2022-08-22T01:33:15.403Z,100091.23
2022-08-22T01:36:26.251Z,100095.88
2022-08-22T01:39:15.313Z,100096.12
2022-08-22T01:42:15.234Z,100096.30
2022-08-22T01:45:03.929Z,100102.56
2022-08-22T01:47:38.779Z,100100.94
2022-08-22T01:50:18.808Z,100093.10
2022-08-22T01:52:51.822Z,100099.31
2022-08-22T01:55:31.964Z,100087.97
2022-08-22T01:58:04.021Z,100087.03
2022-08-22T02:00:51.423Z,100083.47
2022-08-22T02:03:30.034Z,100085.18
2022-08-22T02:06:07.219Z,100089.44
2022-08-22T02:08:44.496Z,100091.06
2022-08-22T02:11:35.249Z,100093.56
2022-08-22T02:14:18.289Z,100095.97
2022-08-22T02:16:53.407Z,100093.09
2022-08-22T02:19:37.354Z,100088.44
2022-08-22T02:22:29.503Z,100096.13
2022-08-22T02:25:09.056Z,100097.66
2022-08-22T02:27:49.655Z,100092.23
2022-08-22T02:30:21.849Z,100092.92
2022-08-22T02:33:00.701Z,100092.86
2022-08-22T02:35:37.152Z,100091.84
2022-08-22T02:38:23.043Z,100093.46
2022-08-22T02:41:06.769Z,100091.51
2022-08-22T02:43:43.835Z,100094.00
2022-08-22T02:46:22.619Z,100096.55
2022-08-22T02:49:00.155Z,100102.56
2022-08-22T02:51:36.638Z,100100.66
2022-08-22T02:54:17.634Z,100097.09
2022-08-22T02:56:52.594Z,100097.95
2022-08-22T02:59:33.506Z,100102.31
2022-08-22T03:02:35.496Z,100097.03
2022-08-22T03:05:22.731Z,100096.09
2022-08-22T03:08:02.245Z,100098.73
2022-08-22T03:10:36.345Z,100102.13
2022-08-22T03:13:11.917Z,100092.42
2022-08-22T03:15:49.362Z,100099.42
2022-08-22T03:18:25.034Z,100096.69
2022-08-22T03:20:58.946Z,100102.75
2022-08-22T03:23:45.962Z,100099.18
2022-08-22T03:26:24.944Z,100101.83
2022-08-22T03:29:00.397Z,100101.73
2022-08-22T03:31:32.314Z,100106.02
2022-08-22T03:34:20.916Z,100109.51
2022-08-22T03:37:03.045Z,100111.22
2022-08-22T03:39:49.968Z,100114.64
2022-08-22T03:42:42.518Z,100109.27
2022-08-22T03:45:37.965Z,100117.97
2022-08-22T03:48:46.085Z,100122.27
2022-08-22T03:51:31.103Z,100112.56
2022-08-22T03:54:19.782Z,100114.18
2022-08-22T03:57:32.513Z,100121.09
2022-08-22T04:00:25.437Z,100123.58
2022-08-22T04:03:20.894Z,100120.78
2022-08-22T04:06:17.600Z,100111.81
2022-08-22T04:09:21.382Z,100123.08
2022-08-22T04:12:17.536Z,100126.41
2022-08-22T04:15:22.506Z,100120.08
2022-08-22T04:18:19.046Z,100127.02
2022-08-22T04:21:17.938Z,100128.73
2022-08-22T04:24:13.966Z,100125.99
2022-08-22T04:26:50.644Z,100140.84
2022-08-22T04:29:25.235Z,100140.78
2022-08-22T04:32:10.590Z,100141.52
2022-08-22T04:34:47.590Z,100135.23
2022-08-22T04:37:22.270Z,100142.14
2022-08-22T04:39:57.494Z,100143.75
2022-08-22T04:42:33.532Z,100148.05
2022-08-22T04:45:10.312Z,100154.86
2022-08-22T04:47:42.796Z,100145.73
2022-08-22T04:50:21.811Z,100155.13
2022-08-22T04:53:17.447Z,100153.09
2022-08-22T04:55:58.637Z,100150.96
2022-08-22T04:58:39.606Z,100153.25
2022-08-22T05:01:17.066Z,100150.27
2022-08-22T05:03:52.913Z,100149.01
2022-08-22T05:06:26.246Z,100153.00
2022-08-22T05:08:59.571Z,100146.44
2022-08-22T05:11:30.504Z,100147.41
2022-08-22T05:14:04.065Z,100153.64
2022-08-22T05:16:37.211Z,100151.28
2022-08-22T05:19:16.943Z,100153.22
2022-08-22T05:21:50.208Z,100158.39
2022-08-22T05:24:28.017Z,100159.34
2022-08-22T05:27:01.522Z,100153.48
2022-08-22T05:29:32.642Z,100159.99
2022-08-22T05:32:04.639Z,100158.55
2022-08-22T05:34:38.601Z,100164.12
2022-08-22T05:37:12.670Z,100157.66
2022-08-22T05:39:46.614Z,100161.12
2022-08-22T05:42:24.899Z,100161.55
2022-08-22T05:44:55.868Z,100161.91
2022-08-22T05:47:28.200Z,100158.50
2022-08-22T05:50:01.599Z,100164.92
2022-08-22T05:52:39.452Z,100159.53
2022-08-22T05:55:21.660Z,100166.42
2022-08-22T05:58:10.419Z,100166.79
2022-08-22T06:00:42.884Z,100163.80
2022-08-22T06:03:19.039Z,100170.73
2022-08-22T06:05:52.907Z,100174.39
2022-08-22T06:08:27.346Z,100164.99
2022-08-22T06:10:59.905Z,100165.41
2022-08-22T06:13:34.611Z,100172.87
2022-08-22T06:16:09.958Z,100172.33
2022-08-22T06:18:42.152Z,100164.78
2022-08-22T06:21:17.739Z,100163.60
2022-08-22T06:23:52.667Z,100153.28
2022-08-22T06:26:23.322Z,100161.35
2022-08-22T06:28:56.733Z,100165.72
2022-08-22T06:31:31.025Z,100164.01
2022-08-22T06:34:05.434Z,100169.13
2022-08-22T06:36:37.750Z,100172.42
2022-08-22T06:39:18.508Z,100169.23
2022-08-22T06:41:52.161Z,100173.17
2022-08-22T06:44:22.130Z,100173.50
2022-08-22T06:46:55.152Z,100176.59
2022-08-22T06:49:27.459Z,100170.20
2022-08-22T06:52:01.578Z,100181.80
2022-08-22T06:54:35.791Z,100179.71
2022-08-22T06:57:06.733Z,100176.06
2022-08-22T06:59:38.850Z,100181.59
2022-08-22T07:02:18.846Z,100184.34
2022-08-22T07:04:50.961Z,100186.05
2022-08-22T07:07:24.030Z,100190.62
2022-08-22T07:09:56.106Z,100193.60
2022-08-22T07:12:31.248Z,100191.81
2022-08-22T07:15:09.596Z,100184.38
2022-08-22T07:17:49.625Z,100194.05
2022-08-22T07:20:27.578Z,100191.95
2022-08-22T07:22:59.276Z,100186.73
2022-08-22T07:25:29.822Z,100190.14
2022-08-22T07:28:15.866Z,100193.27
2022-08-22T07:30:55.037Z,100188.66
2022-08-22T07:33:38.532Z,100190.48
2022-08-22T07:36:23.184Z,100190.61
2022-08-22T07:39:15.016Z,100189.52
2022-08-22T07:41:58.792Z,100193.77
2022-08-22T07:44:30.962Z,100194.38
2022-08-22T07:47:05.652Z,100193.20
2022-08-22T07:49:39.673Z,100191.67
2022-08-22T07:52:20.743Z,100198.59
2022-08-22T07:54:57.623Z,100207.08
2022-08-22T07:57:31.739Z,100203.14
2022-08-22T08:00:10.475Z,100200.24
2022-08-22T08:02:46.625Z,100192.47
2022-08-22T08:05:17.061Z,100191.60
2022-08-22T08:07:47.366Z,100200.48
2022-08-22T08:10:23.511Z,100202.53
2022-08-22T08:13:02.720Z,100203.88
2022-08-22T08:15:35.045Z,100196.48
2022-08-22T08:18:08.877Z,100197.93
2022-08-22T08:20:39.067Z,100191.62
2022-08-22T08:23:11.406Z,100195.56
2022-08-22T08:25:55.673Z,100202.11
2022-08-22T08:28:34.014Z,100196.04
2022-08-22T08:31:09.387Z,100197.14
2022-08-22T08:33:41.808Z,100200.67
2022-08-22T08:36:24.689Z,100210.28
2022-08-22T08:39:02.649Z,100199.30
2022-08-22T08:42:05.401Z,100198.22
2022-08-22T08:45:04.272Z,100196.84
2022-08-22T08:47:43.212Z,100202.39
2022-08-22T08:50:33.768Z,100201.87
2022-08-22T08:53:34.949Z,100201.09
2022-08-22T08:56:19.456Z,100201.18
2022-08-22T08:59:00.123Z,100204.25
2022-08-22T09:01:50.250Z,100199.48
2022-08-22T09:04:50.596Z,100192.78
2022-08-22T09:07:56.867Z,100193.72
2022-08-22T09:11:01.274Z,100197.95
2022-08-22T09:13:50.243Z,100198.08
2022-08-22T09:16:37.442Z,100198.77
2022-08-22T09:19:37.480Z,100198.19
2022-08-22T09:22:49.866Z,100201.42
2022-08-22T09:25:27.195Z,100199.72
2022-08-22T09:28:16.930Z,100196.50
2022-08-22T09:31:32.804Z,100201.92
2022-08-22T09:34:13.532Z,100198.14
2022-08-22T09:37:14.139Z,100196.40
2022-08-22T09:39:57.568Z,100199.95
2022-08-22T09:42:39.670Z,100197.22
2022-08-22T09:45:38.857Z,100197.00
2022-08-22T09:48:13.578Z,100196.81
2022-08-22T09:50:54.690Z,100202.34
2022-08-22T09:53:44.880Z,100194.03
2022-08-22T09:56:20.343Z,100196.32
2022-08-22T09:59:00.286Z,100191.36
2022-08-22T10:01:33.903Z,100192.57
2022-08-22T10:04:40.325Z,100192.84
2022-08-22T10:07:35.469Z,100193.68
2022-08-22T10:10:22.348Z,100194.52
2022-08-22T10:13:00.237Z,100198.05
2022-08-22T10:15:37.639Z,100196.11
2022-08-22T10:18:23.666Z,100195.73
2022-08-22T10:21:09.238Z,100191.70
2022-08-22T10:23:45.919Z,100194.86
2022-08-22T10:26:29.244Z,100192.19
2022-08-22T10:29:08.140Z,100197.53
2022-08-22T10:31:58.392Z,100195.48
2022-08-22T10:34:35.548Z,100198.16
2022-08-22T10:37:23.602Z,100194.47
2022-08-22T10:40:00.322Z,100194.81
2022-08-22T10:42:37.487Z,100191.80
2022-08-22T10:45:36.882Z,100190.51
2022-08-22T10:48:28.803Z,100191.61
2022-08-22T10:51:08.620Z,100197.97
2022-08-22T10:53:55.913Z,100187.72
2022-08-22T10:56:31.694Z,100192.67
2022-08-22T10:59:08.773Z,100190.45
2022-08-22T11:01:47.655Z,100190.74
2022-08-22T11:04:32.407Z,100194.06
2022-08-22T11:07:16.554Z,100188.70
2022-08-22T11:09:51.731Z,100187.66
2022-08-22T11:12:34.536Z,100191.79
2022-08-22T11:15:13.766Z,100186.31
2022-08-22T11:18:14.893Z,100183.00
2022-08-22T11:20:55.827Z,100178.70
2022-08-22T11:23:37.647Z,100190.56
2022-08-22T11:26:30.059Z,100184.33
2022-08-22T11:29:24.403Z,100191.15
2022-08-22T11:32:06.484Z,100189.36
2022-08-22T11:34:50.720Z,100190.52
2022-08-22T11:37:43.423Z,100192.20
2022-08-22T11:40:36.613Z,100189.47
2022-08-22T11:43:26.640Z,100194.60
2022-08-22T11:46:00.606Z,100192.64
2022-08-22T11:48:41.278Z,100192.37
2022-08-22T11:51:26.350Z,100195.88
2022-08-22T11:54:06.737Z,100193.73
2022-08-22T11:56:43.488Z,100202.66
2022-08-22T11:59:22.832Z,100199.97
2022-08-22T12:01:59.307Z,100199.98
2022-08-22T12:04:33.649Z,100206.50
2022-08-22T12:07:13.776Z,100202.84
2022-08-22T12:09:51.654Z,100203.79
2022-08-22T12:12:37.006Z,100194.47
2022-08-22T12:15:17.620Z,100191.52
2022-08-22T12:18:22.033Z,100199.45
2022-08-22T12:21:22.325Z,100197.34
2022-08-22T12:24:27.532Z,100201.86
2022-08-22T12:27:28.937Z,100193.52
2022-08-22T12:30:13.726Z,100202.38
2022-08-22T12:33:15.500Z,100202.27
2022-08-22T12:36:18.479Z,100201.52
2022-08-22T12:39:05.018Z,100196.84
2022-08-22T12:42:05.864Z,100195.74
2022-08-22T12:44:50.749Z,100190.92
2022-08-22T12:47:34.301Z,100193.98
2022-08-22T12:50:17.140Z,100196.41
2022-08-22T12:53:06.383Z,100194.10
2022-08-22T12:56:12.699Z,100190.30
2022-08-22T12:59:10.920Z,100187.61
2022-08-22T13:01:45.284Z,100192.44
2022-08-22T13:04:32.821Z,100198.63
2022-08-22T13:07:09.644Z,100196.25
2022-08-22T13:09:40.635Z,100195.00
2022-08-22T13:12:24.676Z,100191.46
2022-08-22T13:14:57.368Z,100197.39
2022-08-22T13:17:27.919Z,100192.73
2022-08-22T13:20:11.881Z,100185.56
2022-08-22T13:22:45.489Z,100194.02
2022-08-22T13:25:26.336Z,100185.70
2022-08-22T13:27:59.256Z,100191.19
2022-08-22T13:30:37.585Z,100190.06
2022-08-22T13:33:11.019Z,100188.09
2022-08-22T13:35:44.669Z,100184.70
2022-08-22T13:38:25.893Z,100183.83
2022-08-22T13:40:57.922Z,100182.28
2022-08-22T13:43:29.630Z,100185.23
2022-08-22T13:46:01.727Z,100179.30
2022-08-22T13:48:46.953Z,100182.41
2022-08-22T13:51:25.122Z,100169.18
2022-08-22T13:54:02.406Z,100170.58
2022-08-22T13:56:39.572Z,100179.06
2022-08-22T13:59:49.074Z,100180.88
2022-08-22T14:02:25.175Z,100183.56
2022-08-22T14:05:06.315Z,100175.52
2022-08-22T14:11:02.163Z,100167.19
2022-08-22T14:13:42.865Z,100163.41
2022-08-22T14:16:19.641Z,100165.37
2022-08-22T14:18:54.313Z,100162.84
2022-08-22T14:21:40.848Z,100156.08
2022-08-22T14:24:18.865Z,100150.98
2022-08-22T14:26:54.791Z,100163.82
2022-08-22T14:29:31.722Z,100159.00
2022-08-22T14:32:05.960Z,100161.67
2022-08-22T14:34:40.938Z,100166.32
2022-08-22T14:37:21.046Z,100158.70
2022-08-22T14:39:56.408Z,100159.83
2022-08-22T14:42:30.822Z,100165.45
2022-08-22T14:45:07.853Z,100166.02
2022-08-22T14:47:55.275Z,100160.66
2022-08-22T14:50:39.987Z,100163.49
2022-08-22T14:53:22.279Z,100166.17
2022-08-22T14:56:01.533Z,100165.19
2022-08-22T14:58:36.186Z,100165.04
2022-08-22T15:01:11.707Z,100161.53
2022-08-22T15:03:42.657Z,100160.96
2022-08-22T15:06:29.234Z,100152.73
2022-08-22T15:09:00.566Z,100153.30
2022-08-22T15:11:37.818Z,100153.68
2022-08-22T15:14:24.225Z,100152.39
2022-08-22T15:16:55.540Z,100156.31
2022-08-22T15:19:28.099Z,100158.57
2022-08-22T15:22:13.483Z,100158.27
2022-08-22T15:24:46.840Z,100155.41
2022-08-22T15:27:20.115Z,100156.08
2022-08-22T15:29:50.563Z,100157.58
2022-08-22T15:32:23.755Z,100161.78
2022-08-22T15:35:06.242Z,100148.08
2022-08-22T15:37:52.865Z,100146.74
2022-08-22T15:40:33.530Z,100140.09
2022-08-22T15:43:18.517Z,100137.81
2022-08-22T15:45:51.356Z,100141.03
2022-08-22T15:48:35.765Z,100146.78
2022-08-22T15:51:09.897Z,100139.98
2022-08-22T15:54:01.357Z,100131.77
2022-08-22T15:56:35.272Z,100129.73
2022-08-22T15:59:48.136Z,100132.08
2022-08-22T16:02:30.588Z,100128.09
2022-08-22T16:05:23.422Z,100129.60
2022-08-22T16:08:02.987Z,100137.01
2022-08-22T16:10:37.272Z,100139.20
2022-08-22T16:13:14.904Z,100135.94
2022-08-22T16:15:57.724Z,100143.38
2022-08-22T16:19:02.551Z,100148.23
2022-08-22T16:22:10.869Z,100147.89
2022-08-22T16:25:02.757Z,100153.75
2022-08-22T16:27:31.964Z,100157.64
2022-08-22T16:30:11.668Z,100158.75
2022-08-22T16:32:50.371Z,100154.63
2022-08-22T16:35:50.984Z,100155.00
2022-08-22T16:38:26.288Z,100158.78
2022-08-22T16:40:55.343Z,100163.52
2022-08-22T16:43:28.794Z,100160.23
2022-08-22T16:45:59.105Z,100162.30
2022-08-22T16:48:35.224Z,100159.88
2022-08-22T16:51:13.909Z,100154.20
2022-08-22T16:54:11.213Z,100151.63
2022-08-22T16:57:01.602Z,100151.14
2022-08-22T17:00:06.706Z,100156.72
2022-08-22T17:02:59.091Z,100162.30
2022-08-22T17:05:47.195Z,100159.02
2022-08-22T17:08:32.169Z,100166.44
2022-08-22T17:11:11.697Z,100169.47
2022-08-22T17:14:12.372Z,100179.28
2022-08-22T17:16:58.143Z,100183.92
2022-08-22T17:19:42.924Z,100181.35
2022-08-22T17:22:19.963Z,100191.42
2022-08-22T17:25:03.430Z,100195.42
2022-08-22T17:27:39.120Z,100199.42
2022-08-22T17:30:11.772Z,100205.35
2022-08-22T17:33:06.062Z,100204.97
2022-08-22T17:35:55.722Z,100207.39
2022-08-22T17:38:38.368Z,100199.00
2022-08-22T17:41:20.249Z,100209.38
2022-08-22T17:43:57.666Z,100214.55
2022-08-22T17:46:37.090Z,100216.09
2022-08-22T17:49:20.156Z,100220.41
2022-08-22T17:51:54.797Z,100219.52
2022-08-22T17:54:32.023Z,100222.96
2022-08-22T17:57:05.882Z,100225.56
2022-08-22T17:59:45.607Z,100227.91
2022-08-22T18:02:20.811Z,100236.36
2022-08-22T18:05:02.878Z,100233.37
2022-08-22T18:07:40.357Z,100236.70
2022-08-22T18:10:19.029Z,100245.23
2022-08-22T18:13:06.317Z,100244.10
2022-08-22T18:15:47.016Z,100243.88
2022-08-22T18:18:29.951Z,100249.74
2022-08-22T18:21:03.192Z,100244.98
2022-08-22T18:23:40.562Z,100247.37
2022-08-22T18:26:27.249Z,100251.52
2022-08-22T18:28:59.705Z,100248.66
2022-08-22T18:31:38.618Z,100252.78
2022-08-22T18:34:18.793Z,100254.81
2022-08-22T18:36:55.724Z,100255.77
2022-08-22T18:39:29.602Z,100254.25
2022-08-22T18:42:04.720Z,100248.41
2022-08-22T18:44:39.250Z,100255.71
2022-08-22T18:47:17.708Z,100255.94
2022-08-22T18:49:54.100Z,100253.59
2022-08-22T18:52:34.746Z,100251.88
2022-08-22T18:55:23.146Z,100253.03
2022-08-22T18:58:12.819Z,100254.09
2022-08-22T19:00:57.061Z,100257.59
2022-08-22T19:03:39.671Z,100249.81
2022-08-22T19:06:31.926Z,100251.75
2022-08-22T19:09:24.185Z,100247.37
2022-08-22T19:12:03.023Z,100245.75
2022-08-22T19:14:51.082Z,100250.23
2022-08-22T19:17:59.205Z,100253.84
2022-08-22T19:20:48.368Z,100252.25
2022-08-22T19:23:50.769Z,100251.38
2022-08-22T19:26:42.686Z,100261.33
2022-08-22T19:29:47.660Z,100250.05
2022-08-22T19:32:49.040Z,100249.48
2022-08-22T19:35:23.188Z,100242.88
2022-08-22T19:37:53.841Z,100246.78
2022-08-22T19:40:53.961Z,100251.45
2022-08-22T19:43:31.754Z,100246.63
2022-08-22T19:46:03.709Z,100251.41
2022-08-22T19:48:44.056Z,100256.44
2022-08-22T19:51:25.129Z,100252.37
2022-08-22T19:54:16.258Z,100247.16
2022-08-22T19:57:04.194Z,100250.77
2022-08-22T19:59:50.818Z,100256.16
2022-08-22T20:02:35.085Z,100260.73
2022-08-22T20:05:12.346Z,100257.21
2022-08-22T20:08:02.418Z,100255.50
2022-08-22T20:10:49.027Z,100260.05
2022-08-22T20:13:22.392Z,100256.66
2022-08-22T20:16:15.953Z,100254.19
2022-08-22T20:19:19.404Z,100255.14
2022-08-22T20:21:57.598Z,100249.17
2022-08-22T20:24:41.062Z,100242.16
2022-08-22T20:27:15.468Z,100247.54
2022-08-22T20:29:49.984Z,100245.94
2022-08-22T20:32:22.506Z,100245.14
2022-08-22T20:34:58.558Z,100239.83
2022-08-22T20:38:05.889Z,100242.59
2022-08-22T20:40:55.179Z,100249.80
2022-08-22T20:43:25.611Z,100251.69
2022-08-22T20:46:07.198Z,100249.98
2022-08-22T20:48:44.824Z,100251.90
2022-08-22T20:51:19.118Z,100249.42
2022-08-22T20:53:53.618Z,100252.27
2022-08-22T20:56:37.309Z,100248.18
2022-08-22T20:59:29.501Z,100250.17
2022-08-22T21:02:12.160Z,100251.23
2022-08-22T21:04:48.252Z,100253.88
2022-08-22T21:07:23.173Z,100254.90
2022-08-22T21:10:21.601Z,100253.40
2022-08-22T21:13:10.269Z,100242.96
2022-08-22T21:15:42.977Z,100230.74
2022-08-22T21:18:13.644Z,100239.75
2022-08-22T21:20:42.154Z,100239.93
2022-08-22T21:23:15.384Z,100240.03
2022-08-22T21:25:58.543Z,100239.34
2022-08-22T21:28:31.512Z,100235.19
2022-08-22T21:31:10.016Z,100238.84
2022-08-22T21:33:41.932Z,100231.27
2022-08-22T21:36:13.400Z,100236.75
2022-08-22T21:38:48.668Z,100237.97
2022-08-22T21:41:26.769Z,100226.59
2022-08-22T21:43:55.578Z,100225.93
2022-08-22T21:46:28.773Z,100224.33
2022-08-22T21:49:02.869Z,100229.88
2022-08-22T21:51:41.317Z,100228.27
2022-08-22T21:54:40.224Z,100237.16
2022-08-22T21:57:21.454Z,100230.14
2022-08-22T21:59:58.623Z,100239.98
2022-08-22T22:02:39.784Z,100226.05
2022-08-22T22:05:11.674Z,100221.86
2022-08-22T22:07:43.720Z,100225.55
2022-08-22T22:10:15.652Z,100226.50
2022-08-22T22:12:46.750Z,100223.00
2022-08-22T22:15:19.334Z,100214.95
2022-08-22T22:17:50.281Z,100217.77
2022-08-22T22:20:21.666Z,100210.86
2022-08-22T22:22:50.323Z,100207.61
2022-08-22T22:25:41.324Z,100206.00
2022-08-22T22:28:13.695Z,100196.51
2022-08-22T22:30:43.270Z,100193.19
2022-08-22T22:33:12.149Z,100195.17
2022-08-22T22:35:41.151Z,100197.82
2022-08-22T22:38:09.941Z,100199.63
2022-08-22T22:40:38.721Z,100192.52
2022-08-22T22:43:07.203Z,100195.06
2022-08-22T22:45:35.992Z,100180.88
2022-08-22T22:48:05.717Z,100187.89
2022-08-22T22:50:39.956Z,100190.54
2022-08-22T22:53:09.709Z,100202.01
2022-08-22T22:55:41.513Z,100205.60
2022-08-22T22:58:10.518Z,100206.44
2022-08-22T23:00:39.025Z,100198.59
2022-08-22T23:03:08.067Z,100200.47
2022-08-22T23:05:36.555Z,100205.87
2022-08-22T23:08:05.389Z,100204.23
2022-08-22T23:10:34.074Z,100205.43
2022-08-22T23:13:05.291Z,100203.05
2022-08-22T23:15:33.960Z,100201.44
2022-08-22T23:18:02.457Z,100210.32
2022-08-22T23:20:31.353Z,100218.27
2022-08-22T23:22:59.963Z,100216.55
2022-08-22T23:25:28.637Z,100213.33
2022-08-22T23:27:57.290Z,100212.66
2022-08-22T23:30:26.105Z,100205.81
2022-08-22T23:32:55.536Z,100210.50
2022-08-22T23:35:24.078Z,100200.16
2022-08-22T23:37:52.702Z,100195.97
2022-08-22T23:40:21.229Z,100191.67
2022-08-22T23:42:49.963Z,100205.94
2022-08-22T23:45:18.669Z,100205.94
2022-08-22T23:47:48.571Z,100208.59
2022-08-22T23:50:17.352Z,100211.23
2022-08-22T23:52:46.303Z,100213.05
2022-08-22T23:55:14.867Z,100221.15
2022-08-22T23:57:43.371Z,100230.91
